• Join FlightAware (Why Join?)
  • Login
  • US Flag 
04:39PM EDT


 

Airport Tracker/Info


-or-


 

Live Flight TrackerFlight Track Log ✈ N783FM ✈ 06-May-2013 ✈ KUUU - KFME

Flight Track Log - Related Links

Times and Time Zones

All times are in EDT time to prevent confusion due to time zone crossing. See the N783FM flight status page for this flight to view local times or setup timezone preferences in your user account.

Time Position Orientation Groundspeed Altitude Reporting Facility
EDT Latitude Longitude Course Direction KTS MPH feet Rate Location/Type
05:25PM 41.5356 -71.2503 173° South 87 100 2,300  Level Boston Center
05:26PM 41.5208 -71.2478 173° South 90 104 2,600 540 Climbing Boston Center
05:28PM 41.5339 -71.3031 288° West 90 104 3,800 240 Climbing Boston Center
05:30PM 41.5335 -71.3712 270° West  Level FlightAware Approximate
05:30PM 41.5011 -71.3619 270° West 105 121 3,800  Level Boston Center
05:31PM 41.5142 -71.4006 294° West 107 123 3,800  Level Boston Center
05:33PM 41.5365 -71.4625 288° West  Level FlightAware Approximate
05:34PM 41.5608 -71.5133 288° West 117 135 3,800  Level Boston Center
05:35PM 41.5778 -71.5492 302° West 115 132 3,800 60 Level Boston Center
05:37PM 41.6033 -71.6183 296° West 112 129 4,000 180 Climbing Boston Center
05:38PM 41.6036 -71.6572 271° West 99 114 4,500 540 Climbing Boston Center
05:40PM 41.6032 -71.7255 270° West  Level FlightAware Approximate
05:40PM 41.6186 -71.7181 270° West 88 101 5,700  Level Boston Center
05:41PM 41.6147 -71.7542 262° West 99 114 5,900  Climbing Boston Center
05:42PM 41.6150 -71.7931 271° West 113 130 5,800  Descending Boston Center
05:43PM 41.6153 -71.8375 270° West 108 124 5,900  Climbing Boston Center
05:45PM 41.6121 -71.9036 266° West  Level FlightAware Approximate
05:45PM 41.6219 -71.9431 266° West 110 127 5,800  Level Boston Center
05:48PM 41.6222 -72.0319 270° West 107 123 5,900  Climbing Boston Center
05:50PM 41.6089 -72.1027 256° West  Level FlightAware Approximate
05:50PM 41.6225 -72.1403 256° West 111 128 5,900  Level Boston Center
05:51PM 41.6269 -72.1819 278° West 111 128 5,800  Descending Boston Center
05:52PM 41.6292 -72.2206 274° West 106 122 5,900  Climbing Boston Center
05:54PM 41.6298 -72.2631 271° West  Level FlightAware Approximate
05:54PM 41.6333 -72.2983 271° West 108 124 5,900  Level Boston Center
05:55PM 41.6333 -72.3372 270° West 106 122 5,800 -60 Descending Boston Center
05:57PM 41.6334 -72.3825 270° West  Level FlightAware Approximate
05:58PM 41.6333 -72.4206 270° West 105 121 5,800  Level Boston Center
05:59PM 41.6356 -72.4594 274° West 105 121 5,800 -540 Level Boston Center
06:01PM 41.6338 -72.5373 279° West  Level FlightAware Approximate
06:02PM 41.6417 -72.5733 279° West 98 113 3,800  Level Boston Center
06:02PM 41.6481 -72.6094 283° West 108 124 3,800  Level Boston Center
06:05PM 41.6581 -72.6931 279° West 107 123 3,900  Climbing Boston Center
06:07PM 41.6663 -72.7675 278° West  Level FlightAware Approximate
06:08PM 41.6725 -72.8042 278° West 101 116 3,800  Level Boston Center
06:09PM 41.6786 -72.8431 282° West 106 122 3,800  Level Boston Center
06:10PM 41.6825 -72.8792 278° West 107 123 3,900  Climbing Boston Center
06:12PM 41.6906 -72.9656 277° West 108 124 3,800 -60 Descending Boston Center
06:13PM 41.6967 -73.0072 281° West 108 124 3,800  Level Boston Center
06:15PM 41.7000 -73.0833 273° West 106 122 3,900  Climbing New York TRACON
06:16PM 41.7167 -73.1167 304° West 110 127 3,900  Level New York TRACON
06:16PM 41.7167 -73.1500 270° West 109 125 3,900 -60 Level New York TRACON
06:18PM 41.7167 -73.2000 270° West 109 125 3,800 -60 Descending New York TRACON
06:20PM 41.7000 -73.2667 252° West 107 123 3,800  Level New York TRACON
06:21PM 41.6833 -73.3000 236° Southwest 106 122 3,800  Level New York TRACON
06:23PM 41.6433 -73.3565 279° West  Level Estimated
06:23PM 41.6667 -73.4167 279° West 108 124 3,900  Level New York TRACON
06:24PM 41.6667 -73.4500 270° West 111 128 3,900  Level New York TRACON
06:26PM 41.6879 -73.4817 312° West  Level FlightAware Approximate
06:27PM 41.6333 -73.5667 240° Southwest 110 127 3,900  Level New York TRACON
06:29PM 41.6208 -73.6056 247° West  Level FlightAware Approximate
06:30PM 41.6167 -73.6833 247° West 108 124 3,800  Level New York TRACON
06:31PM 41.6000 -73.7167 236° Southwest 110 127 3,800  Level New York TRACON
06:33PM 41.7116 -73.7288 240° Southwest  Level FlightAware Approximate
06:33PM 41.5833 -73.7667 246° West 108 124 3,800  Level New York TRACON
06:33PM 41.5833 -73.8000 270° West 109 125 3,800  Level New York TRACON
06:34PM 41.5833 -73.8333 270° West 111 128 3,800  Level New York TRACON
06:36PM 41.5397 -73.8565 247° West  Level FlightAware Approximate
06:36PM 41.5667 -73.8833 246° West 109 125 3,900  Level New York TRACON
06:38PM 41.5500 -73.9667 255° West 112 129 3,800 -60 Descending New York TRACON
06:39PM 41.5500 -74.0000 270° West 108 124 3,800  Level New York TRACON
06:40PM 41.5333 -74.0333 236° Southwest 105 121 3,800  Level New York TRACON
06:41PM 41.5167 -74.0667 236° Southwest 106 122 3,800  Level New York TRACON
06:42PM 41.5167 -74.1000 270° West 109 125 3,800  Level New York TRACON
06:43PM 41.5167 -74.1500 270° West 108 124 3,800  Level New York TRACON
06:44PM 41.5000 -74.1833 236° Southwest 100 115 3,800  Level New York TRACON
06:45PM 41.4833 -74.2167 236° Southwest 106 122 3,800  Level New York TRACON
06:46PM 41.4833 -74.2500 270° West 105 121 3,900  Climbing New York TRACON
06:48PM 41.4533 -74.3162 239° Southwest  Level FlightAware Approximate
06:49PM 41.4667 -74.3667 239° Southwest 112 129 3,800  Level New York TRACON
06:50PM 41.4500 -74.4000 236° Southwest 107 123 3,800  Level New York TRACON
06:51PM 41.4333 -74.4500 246° West 110 127 3,800  Level New York TRACON
06:52PM 41.4333 -74.4833 270° West 106 122 3,800  Level New York TRACON
06:54PM 41.4167 -74.5500 252° West 105 121 3,800  Level New York TRACON
06:55PM 41.4000 -74.6000 246° West 109 125 3,800  Level New York TRACON
06:57PM 41.3605 -74.6505 224° Southwest  Level FlightAware Approximate
06:59PM 41.4667 -74.6500 222° Southwest 124 143 3,900  Level New York TRACON
07:01PM 41.4182 -74.6857 209° Southwest  Level FlightAware Approximate
07:03PM 41.4500 -74.5333 209° Southwest 118 136 3,900  Level New York TRACON
07:04PM 41.2134 -74.8373 222° Southwest  Level FlightAware Approximate
07:04PM 41.4333 -74.5500 217° Southwest 108 124 3,900  Level New York TRACON
07:05PM 41.4167 -74.5833 236° Southwest 104 120 3,900 -60 Level New York TRACON
07:06PM 41.4000 -74.6167 236° Southwest 107 123 3,800 -60 Descending New York TRACON
07:07PM 41.3667 -74.6333 201° Southwest 107 123 3,800  Level New York TRACON
07:08PM 41.2379 -74.8178 209° Southwest  Level FlightAware Approximate
07:08PM 41.3500 -74.6667 236° Southwest 108 124 3,800  Level New York TRACON
07:09PM 41.3333 -74.7000 236° Southwest 106 122 3,900  Climbing New York TRACON
07:10PM 41.3167 -74.7167 217° Southwest 108 124 3,800 -60 Descending New York TRACON
07:11PM 41.2833 -74.7500 217° Southwest 107 123 3,800  Level New York TRACON
07:12PM 41.2667 -74.7833 236° Southwest 104 120 3,900  Climbing New York TRACON
07:14PM 41.2222 -74.8278 217° Southwest  Level FlightAware Approximate
07:21PM 41.0759 -75.0023 222° Southwest  Level FlightAware Approximate
07:22PM 41.0551 -75.0273 222° Southwest  Level FlightAware Approximate
07:23PM 41.0346 -75.0527 224° Southwest  Level FlightAware Approximate
07:24PM 41.0142 -75.0783 224° Southwest  Level FlightAware Approximate
07:25PM 40.9939 -75.1039 223° Southwest  Level FlightAware Approximate
07:26PM 40.9735 -75.1295 223° Southwest  Level FlightAware Approximate
07:27PM 40.9531 -75.1550 223° Southwest  Level FlightAware Approximate
07:28PM 40.9328 -75.1806 223° Southwest  Level FlightAware Approximate
07:29PM 40.9124 -75.2061 223° Southwest  Level FlightAware Approximate
07:30PM 40.8920 -75.2316 223° Southwest  Level FlightAware Approximate
07:31PM 40.8716 -75.2571 223° Southwest  Level FlightAware Approximate
07:32PM 40.8512 -75.2826 223° Southwest  Level FlightAware Approximate
07:33PM 40.8308 -75.3080 223° Southwest  Level FlightAware Approximate
07:34PM 40.8104 -75.3335 223° Southwest  Level FlightAware Approximate
07:35PM 40.7900 -75.3589 223° Southwest  Level FlightAware Approximate
07:36PM 40.7695 -75.3843 223° Southwest  Level FlightAware Approximate
07:37PM 40.7491 -75.4097 223° Southwest  Level FlightAware Approximate
07:38PM 40.7287 -75.4351 223° Southwest  Level FlightAware Approximate
07:39PM 40.7092 -75.4617 230° Southwest  Level FlightAware Approximate
07:40PM 40.6911 -75.4899 230° Southwest  Level FlightAware Approximate
07:41PM 40.6730 -75.5182 230° Southwest  Level FlightAware Approximate
07:42PM 40.6548 -75.5464 230° Southwest  Level FlightAware Approximate
07:43PM 40.6367 -75.5746 230° Southwest  Level FlightAware Approximate
07:44PM 40.6185 -75.6028 230° Southwest  Level FlightAware Approximate
07:45PM 40.6004 -75.6310 230° Southwest  Level FlightAware Approximate
07:46PM 40.5822 -75.6592 230° Southwest  Level FlightAware Approximate
07:47PM 40.5639 -75.6872 227° Southwest  Level FlightAware Approximate
07:48PM 40.5447 -75.7141 227° Southwest  Level FlightAware Approximate
07:49PM 40.5255 -75.7410 227° Southwest  Level FlightAware Approximate
07:50PM 40.5063 -75.7679 227° Southwest  Level FlightAware Approximate
07:51PM 40.4870 -75.7948 227° Southwest  Level FlightAware Approximate
07:52PM 40.4672 -75.8208 224° Southwest  Level FlightAware Approximate
07:53PM 40.4471 -75.8466 224° Southwest  Level FlightAware Approximate
07:54PM 40.4270 -75.8723 224° Southwest  Level FlightAware Approximate
07:55PM 40.4069 -75.8981 224° Southwest  Level FlightAware Approximate
07:56PM 40.3868 -75.9238 224° Southwest  Level FlightAware Approximate
07:57PM 40.3668 -75.9495 224° Southwest  Level FlightAware Approximate
07:58PM 40.3467 -75.9752 224° Southwest  Level FlightAware Approximate
07:59PM 40.3266 -76.0009 224° Southwest  Level FlightAware Approximate
08:00PM 40.3065 -76.0266 224° Southwest  Level FlightAware Approximate
08:01PM 40.2864 -76.0523 224° Southwest  Level FlightAware Approximate
08:02PM 40.2662 -76.0779 224° Southwest  Level FlightAware Approximate
08:03PM 40.2460 -76.1037 224° Southwest  Level FlightAware Approximate
08:04PM 40.2257 -76.1295 224° Southwest  Level FlightAware Approximate
08:05PM 40.2055 -76.1552 224° Southwest  Level FlightAware Approximate
08:06PM 40.1852 -76.1809 224° Southwest  Level FlightAware Approximate
08:07PM 40.1665 -76.2086 229° Southwest  Level FlightAware Approximate
08:08PM 40.1479 -76.2365 229° Southwest  Level FlightAware Approximate
08:09PM 40.1294 -76.2643 229° Southwest  Level FlightAware Approximate
08:10PM 40.1078 -76.2833 180° South  Level FlightAware Approximate
08:11PM 40.0795 -76.2833 180° South  Level FlightAware Approximate
08:12PM 40.0513 -76.2833 180° South  Level FlightAware Approximate
08:13PM 40.0231 -76.2833 180° South  Level FlightAware Approximate
08:13PM 39.9333 -76.3833 180° South 125 144 3,800  Level Potomac TRACON
08:14PM 39.9949 -76.2833 180° South  Level FlightAware Approximate
08:14PM 39.9000 -76.4000 201° Southwest 119 137 3,800  Level Potomac TRACON
08:15PM 39.9666 -76.2833 180° South  Level FlightAware Approximate
08:15PM 39.8667 -76.4167 201° Southwest 103 119 3,800  Level Potomac TRACON
08:16PM 39.9384 -76.2833 180° South  Level FlightAware Approximate
08:16PM 39.8500 -76.4167 180° South 99 114 3,800  Level Potomac TRACON
08:17PM 39.9101 -76.2833 180° South  Level FlightAware Approximate
08:17PM 39.8167 -76.4333 201° Southwest 110 127 3,800  Level Potomac TRACON
08:18PM 39.8819 -76.2833 180° South  Level FlightAware Approximate
08:18PM 39.8000 -76.4500 218° Southwest 122 140 3,700  Level Potomac TRACON
08:20PM 39.7476 -76.4726 198° South  Level FlightAware Approximate
08:21PM 39.7333 -76.5500 198° South 117 135 3,800  Level Potomac TRACON
08:22PM 39.7167 -76.5833 237° Southwest 115 132 3,800  Level Potomac TRACON
08:23PM 39.7000 -76.6333 247° West 123 142 3,800  Level Potomac TRACON
08:24PM 39.6667 -76.6667 218° Southwest 123 142 3,800  Level Potomac TRACON
08:25PM 39.6500 -76.7000 237° Southwest 126 145 3,800  Level Potomac TRACON
08:26PM 39.6333 -76.7333 237° Southwest 124 143 3,800  Level Potomac TRACON
08:27PM 39.6167 -76.7667 237° Southwest 118 136 3,800 -60 Level Potomac TRACON
08:29PM 39.5667 -76.8333 226° Southwest 113 130 3,700 -60 Descending Potomac TRACON
08:30PM 39.5500 -76.8500 218° Southwest 115 132 3,700  Level Potomac TRACON
08:31PM 39.5167 -76.8667 201° Southwest 108 124 3,800  Climbing Potomac TRACON
08:32PM 39.5000 -76.9000 237° Southwest 114 131 3,800  Level Potomac TRACON
08:33PM 39.4667 -76.9167 201° Southwest 116 133 3,800 -300 Level Potomac TRACON
08:34PM 39.4500 -76.9333 218° Southwest 115 132 3,300 -540 Descending Potomac TRACON
08:35PM 39.4167 -76.9667 218° Southwest 107 123 2,800 -300 Descending Potomac TRACON
08:36PM 39.4000 -76.9833 218° Southwest 104 120 2,800 60 Level Potomac TRACON
08:38PM 39.3500 -77.0333 218° Southwest 147 169 3,000  Climbing Potomac TRACON
08:39PM 39.3167 -77.0333 180° South 88 101 2,800 -180 Descending Potomac TRACON
08:40PM 39.3000 -77.0167 142° Southeast 86 99 2,700 -300 Descending Potomac TRACON
08:41PM 39.2833 -77.0167 180° South 89 102 2,300 -300 Descending Potomac TRACON
08:43PM 39.2333 -77.0000 166° South 87 100 1,900 -120 Descending Potomac TRACON
08:44PM 39.2167 -76.9833 142° Southeast 87 100 2,000 60 Climbing Potomac TRACON
08:45PM 39.1833 -76.9833 180° South 89 102 2,100  Climbing Potomac TRACON
08:46PM 39.1667 -76.9667 142° Southeast 85 98 2,100 -300 Level Potomac TRACON
08:47PM 39.1500 -76.9500 142° Southeast 75 86 1,600 -300 Descending Potomac TRACON
08:48PM 39.1500 -76.9167 90° East 80 92 1,500 -60 Descending Potomac TRACON
08:49PM 39.1333 -76.9000 142° Southeast 79 91 1,500 -60 Level Potomac TRACON
08:51PM 39.1000 -76.8500 131° Southeast 84 97 1,400 -240 Descending Potomac TRACON
08:52PM 39.1000 -76.8333 90° East 77 89 900 -420 Descending Potomac TRACON
08:53PM 39.0833 -76.8000 123° Southeast 78 90 600 -300 Descending Potomac TRACON
08:55PM 39.0854 -76.7594 134° Southeast  Level Estimated
09:02PM 39.0854 -76.7594 134° Southeast  Level Estimated
09:03PM 39.0854 -76.7594 134° Southeast  Level Estimated
09:04PM 39.0854 -76.7594 134° Southeast  Level Estimated
09:05PM 39.0854 -76.7594 134° Southeast  Level Estimated
09:06PM 39.0854 -76.7594 134° Southeast  Level Estimated
09:07PM 39.0854 -76.7594 134° Southeast  Level Estimated
09:08PM 39.0854 -76.7594 134° Southeast  Level Estimated
09:09PM 39.0854 -76.7594 134° Southeast  Level Estimated